sensor_id;sensor_type;location;lat;lon;timestamp;P1;durP1;ratioP1;P2;durP2;ratioP2
13335;SDS011;6737;51.480;11.962;2023-09-18T00:01:51;8.02;;;3.65;;
13335;SDS011;6737;51.480;11.962;2023-09-18T00:04:17;5.47;;;3.38;;
13335;SDS011;6737;51.480;11.962;2023-09-18T00:06:42;6.32;;;3.65;;
13335;SDS011;6737;51.480;11.962;2023-09-18T00:09:08;8.80;;;3.55;;
13335;SDS011;6737;51.480;11.962;2023-09-18T00:11:37;4.82;;;3.63;;
13335;SDS011;6737;51.480;11.962;2023-09-18T00:14:04;6.00;;;3.63;;
13335;SDS011;6737;51.480;11.962;2023-09-18T00:16:30;5.63;;;3.65;;
13335;SDS011;6737;51.480;11.962;2023-09-18T00:18:56;4.00;;;3.47;;
13335;SDS011;6737;51.480;11.962;2023-09-18T00:21:22;4.05;;;3.65;;
13335;SDS011;6737;51.480;11.962;2023-09-18T00:23:50;3.70;;;3.40;;
13335;SDS011;6737;51.480;11.962;2023-09-18T00:26:17;5.63;;;3.55;;
13335;SDS011;6737;51.480;11.962;2023-09-18T00:28:42;3.92;;;3.53;;
13335;SDS011;6737;51.480;11.962;2023-09-18T00:31:08;5.90;;;3.63;;
13335;SDS011;6737;51.480;11.962;2023-09-18T00:33:35;4.68;;;3.95;;
13335;SDS011;6737;51.480;11.962;2023-09-18T00:36:01;5.07;;;3.88;;
13335;SDS011;6737;51.480;11.962;2023-09-18T00:38:27;5.18;;;3.83;;
13335;SDS011;6737;51.480;11.962;2023-09-18T00:40:53;6.65;;;3.58;;
13335;SDS011;6737;51.480;11.962;2023-09-18T00:43:18;5.13;;;3.78;;
13335;SDS011;6737;51.480;11.962;2023-09-18T00:45:46;5.32;;;3.95;;
13335;SDS011;6737;51.480;11.962;2023-09-18T00:48:16;6.88;;;3.75;;
13335;SDS011;6737;51.480;11.962;2023-09-18T00:50:45;4.68;;;3.45;;
13335;SDS011;6737;51.480;11.962;2023-09-18T00:53:15;6.57;;;4.10;;
13335;SDS011;6737;51.480;11.962;2023-09-18T00:55:43;9.80;;;3.60;;
13335;SDS011;6737;51.480;11.962;2023-09-18T00:58:09;3.90;;;3.50;;
13335;SDS011;6737;51.480;11.962;2023-09-18T01:00:35;5.45;;;3.90;;
13335;SDS011;6737;51.480;11.962;2023-09-18T01:03:02;4.10;;;3.70;;
13335;SDS011;6737;51.480;11.962;2023-09-18T01:05:30;5.47;;;4.05;;
13335;SDS011;6737;51.480;11.962;2023-09-18T01:07:58;4.57;;;4.07;;
13335;SDS011;6737;51.480;11.962;2023-09-18T01:10:24;4.47;;;3.75;;
13335;SDS011;6737;51.480;11.962;2023-09-18T01:13:13;7.25;;;4.05;;
13335;SDS011;6737;51.480;11.962;2023-09-18T01:15:43;7.65;;;4.47;;
13335;SDS011;6737;51.480;11.962;2023-09-18T01:18:17;4.50;;;4.10;;
13335;SDS011;6737;51.480;11.962;2023-09-18T01:20:44;5.70;;;3.97;;
13335;SDS011;6737;51.480;11.962;2023-09-18T01:23:10;6.05;;;4.10;;
13335;SDS011;6737;51.480;11.962;2023-09-18T01:25:36;7.05;;;4.32;;
13335;SDS011;6737;51.480;11.962;2023-09-18T01:28:03;5.57;;;4.70;;
13335;SDS011;6737;51.480;11.962;2023-09-18T01:30:29;9.13;;;4.50;;
13335;SDS011;6737;51.480;11.962;2023-09-18T01:32:55;7.20;;;4.57;;
13335;SDS011;6737;51.480;11.962;2023-09-18T01:35:25;5.75;;;4.30;;
13335;SDS011;6737;51.480;11.962;2023-09-18T01:37:55;6.15;;;4.60;;
13335;SDS011;6737;51.480;11.962;2023-09-18T01:40:23;6.55;;;4.10;;
13335;SDS011;6737;51.480;11.962;2023-09-18T01:42:49;4.72;;;4.13;;
13335;SDS011;6737;51.480;11.962;2023-09-18T01:45:15;4.35;;;3.95;;
13335;SDS011;6737;51.480;11.962;2023-09-18T01:47:41;5.22;;;4.30;;
13335;SDS011;6737;51.480;11.962;2023-09-18T01:50:07;7.55;;;4.30;;
13335;SDS011;6737;51.480;11.962;2023-09-18T01:52:33;4.88;;;4.30;;
13335;SDS011;6737;51.480;11.962;2023-09-18T01:55:02;5.85;;;4.30;;
13335;SDS011;6737;51.480;11.962;2023-09-18T01:57:31;7.88;;;4.88;;
13335;SDS011;6737;51.480;11.962;2023-09-18T01:59:57;4.85;;;4.35;;
13335;SDS011;6737;51.480;11.962;2023-09-18T02:02:22;5.70;;;4.28;;
13335;SDS011;6737;51.480;11.962;2023-09-18T02:04:49;5.32;;;4.60;;
13335;SDS011;6737;51.480;11.962;2023-09-18T02:07:14;5.32;;;4.55;;
13335;SDS011;6737;51.480;11.962;2023-09-18T02:09:40;5.50;;;4.55;;
13335;SDS011;6737;51.480;11.962;2023-09-18T02:12:06;6.63;;;4.53;;
13335;SDS011;6737;51.480;11.962;2023-09-18T02:14:32;7.07;;;4.82;;
13335;SDS011;6737;51.480;11.962;2023-09-18T02:16:59;6.18;;;4.95;;
13335;SDS011;6737;51.480;11.962;2023-09-18T02:19:25;5.88;;;4.68;;
13335;SDS011;6737;51.480;11.962;2023-09-18T02:21:51;7.53;;;4.53;;
13335;SDS011;6737;51.480;11.962;2023-09-18T02:24:17;8.32;;;4.72;;
13335;SDS011;6737;51.480;11.962;2023-09-18T02:26:44;6.70;;;4.65;;
13335;SDS011;6737;51.480;11.962;2023-09-18T02:29:10;5.15;;;4.65;;
13335;SDS011;6737;51.480;11.962;2023-09-18T02:31:38;6.07;;;4.70;;
13335;SDS011;6737;51.480;11.962;2023-09-18T02:34:04;5.18;;;4.68;;
13335;SDS011;6737;51.480;11.962;2023-09-18T02:36:30;6.93;;;4.60;;
13335;SDS011;6737;51.480;11.962;2023-09-18T02:38:56;10.02;;;5.22;;
13335;SDS011;6737;51.480;11.962;2023-09-18T02:41:22;5.88;;;4.28;;
13335;SDS011;6737;51.480;11.962;2023-09-18T02:43:47;6.65;;;4.75;;
13335;SDS011;6737;51.480;11.962;2023-09-18T02:46:13;8.90;;;4.80;;
13335;SDS011;6737;51.480;11.962;2023-09-18T02:48:39;5.10;;;4.55;;
13335;SDS011;6737;51.480;11.962;2023-09-18T02:51:05;7.07;;;4.80;;
13335;SDS011;6737;51.480;11.962;2023-09-18T02:53:31;7.22;;;4.70;;
13335;SDS011;6737;51.480;11.962;2023-09-18T02:55:57;6.68;;;4.78;;
13335;SDS011;6737;51.480;11.962;2023-09-18T02:58:24;6.45;;;4.35;;
13335;SDS011;6737;51.480;11.962;2023-09-18T03:00:51;8.10;;;4.80;;
13335;SDS011;6737;51.480;11.962;2023-09-18T03:03:25;8.18;;;5.07;;
13335;SDS011;6737;51.480;11.962;2023-09-18T03:05:51;5.72;;;4.55;;
13335;SDS011;6737;51.480;11.962;2023-09-18T03:08:17;9.65;;;4.78;;
13335;SDS011;6737;51.480;11.962;2023-09-18T03:10:43;5.20;;;4.70;;
13335;SDS011;6737;51.480;11.962;2023-09-18T03:13:10;5.47;;;4.57;;
13335;SDS011;6737;51.480;11.962;2023-09-18T03:15:38;6.45;;;4.70;;
13335;SDS011;6737;51.480;11.962;2023-09-18T03:18:04;6.13;;;4.63;;
13335;SDS011;6737;51.480;11.962;2023-09-18T03:20:32;6.00;;;5.00;;
13335;SDS011;6737;51.480;11.962;2023-09-18T03:22:58;8.60;;;5.22;;
13335;SDS011;6737;51.480;11.962;2023-09-18T03:25:26;6.00;;;4.60;;
13335;SDS011;6737;51.480;11.962;2023-09-18T03:27:52;7.38;;;4.97;;
13335;SDS011;6737;51.480;11.962;2023-09-18T03:30:19;6.70;;;5.22;;
13335;SDS011;6737;51.480;11.962;2023-09-18T03:32:46;7.63;;;4.82;;
13335;SDS011;6737;51.480;11.962;2023-09-18T03:35:16;6.05;;;4.95;;
13335;SDS011;6737;51.480;11.962;2023-09-18T03:40:11;5.90;;;4.75;;
13335;SDS011;6737;51.480;11.962;2023-09-18T03:42:37;6.70;;;5.00;;
13335;SDS011;6737;51.480;11.962;2023-09-18T03:45:04;7.35;;;5.13;;
13335;SDS011;6737;51.480;11.962;2023-09-18T03:47:31;9.20;;;5.00;;
13335;SDS011;6737;51.480;11.962;2023-09-18T03:49:59;7.65;;;4.57;;
13335;SDS011;6737;51.480;11.962;2023-09-18T03:52:24;9.68;;;5.00;;
13335;SDS011;6737;51.480;11.962;2023-09-18T03:54:50;10.07;;;4.82;;
13335;SDS011;6737;51.480;11.962;2023-09-18T03:57:16;6.22;;;5.25;;
13335;SDS011;6737;51.480;11.962;2023-09-18T03:59:42;4.70;;;4.25;;
13335;SDS011;6737;51.480;11.962;2023-09-18T04:02:07;7.18;;;4.45;;
13335;SDS011;6737;51.480;11.962;2023-09-18T04:04:33;8.57;;;4.75;;
13335;SDS011;6737;51.480;11.962;2023-09-18T04:06:59;7.63;;;4.70;;
13335;SDS011;6737;51.480;11.962;2023-09-18T04:09:24;6.07;;;4.63;;
13335;SDS011;6737;51.480;11.962;2023-09-18T04:11:50;5.82;;;4.57;;
13335;SDS011;6737;51.480;11.962;2023-09-18T04:14:17;6.75;;;4.70;;
13335;SDS011;6737;51.480;11.962;2023-09-18T04:16:42;8.07;;;4.57;;
13335;SDS011;6737;51.480;11.962;2023-09-18T04:19:09;6.60;;;4.82;;
13335;SDS011;6737;51.480;11.962;2023-09-18T04:21:35;7.65;;;5.22;;
13335;SDS011;6737;51.480;11.962;2023-09-18T04:24:01;7.88;;;4.78;;
13335;SDS011;6737;51.480;11.962;2023-09-18T04:26:27;7.15;;;4.70;;
13335;SDS011;6737;51.480;11.962;2023-09-18T04:28:59;8.93;;;5.00;;
13335;SDS011;6737;51.480;11.962;2023-09-18T04:31:26;6.18;;;5.22;;
13335;SDS011;6737;51.480;11.962;2023-09-18T04:33:52;8.55;;;5.03;;
13335;SDS011;6737;51.480;11.962;2023-09-18T04:36:19;9.82;;;4.65;;
13335;SDS011;6737;51.480;11.962;2023-09-18T04:38:44;7.20;;;4.68;;
13335;SDS011;6737;51.480;11.962;2023-09-18T04:41:10;6.63;;;5.00;;
13335;SDS011;6737;51.480;11.962;2023-09-18T04:43:37;7.40;;;5.05;;
13335;SDS011;6737;51.480;11.962;2023-09-18T04:46:05;6.65;;;5.25;;
13335;SDS011;6737;51.480;11.962;2023-09-18T04:48:32;7.22;;;5.10;;
13335;SDS011;6737;51.480;11.962;2023-09-18T04:50:58;7.10;;;4.88;;
13335;SDS011;6737;51.480;11.962;2023-09-18T04:53:24;8.43;;;5.05;;
13335;SDS011;6737;51.480;11.962;2023-09-18T04:55:52;6.10;;;5.20;;
13335;SDS011;6737;51.480;11.962;2023-09-18T04:58:18;6.30;;;4.72;;
13335;SDS011;6737;51.480;11.962;2023-09-18T05:00:44;8.60;;;5.07;;
13335;SDS011;6737;51.480;11.962;2023-09-18T05:03:10;9.50;;;5.30;;
13335;SDS011;6737;51.480;11.962;2023-09-18T05:05:36;5.50;;;4.43;;
13335;SDS011;6737;51.480;11.962;2023-09-18T05:08:02;9.93;;;5.28;;
13335;SDS011;6737;51.480;11.962;2023-09-18T05:10:36;8.40;;;4.97;;
13335;SDS011;6737;51.480;11.962;2023-09-18T05:13:02;9.45;;;4.85;;
13335;SDS011;6737;51.480;11.962;2023-09-18T05:15:29;8.07;;;5.10;;
13335;SDS011;6737;51.480;11.962;2023-09-18T05:17:55;7.32;;;4.75;;
13335;SDS011;6737;51.480;11.962;2023-09-18T05:20:26;8.15;;;5.40;;
13335;SDS011;6737;51.480;11.962;2023-09-18T05:22:54;8.82;;;5.05;;
13335;SDS011;6737;51.480;11.962;2023-09-18T05:25:21;7.93;;;5.30;;
13335;SDS011;6737;51.480;11.962;2023-09-18T05:27:50;10.55;;;5.40;;
13335;SDS011;6737;51.480;11.962;2023-09-18T05:30:25;8.95;;;5.40;;
13335;SDS011;6737;51.480;11.962;2023-09-18T05:32:59;7.05;;;5.07;;
13335;SDS011;6737;51.480;11.962;2023-09-18T05:35:33;8.02;;;5.20;;
13335;SDS011;6737;51.480;11.962;2023-09-18T05:38:03;5.50;;;4.93;;
13335;SDS011;6737;51.480;11.962;2023-09-18T05:40:30;7.38;;;4.78;;
13335;SDS011;6737;51.480;11.962;2023-09-18T05:42:57;7.65;;;4.93;;
13335;SDS011;6737;51.480;11.962;2023-09-18T05:45:23;5.72;;;4.47;;
13335;SDS011;6737;51.480;11.962;2023-09-18T05:47:50;7.85;;;5.20;;
13335;SDS011;6737;51.480;11.962;2023-09-18T05:50:16;7.05;;;5.00;;
13335;SDS011;6737;51.480;11.962;2023-09-18T05:52:43;5.55;;;4.95;;
13335;SDS011;6737;51.480;11.962;2023-09-18T05:55:10;7.35;;;5.22;;
13335;SDS011;6737;51.480;11.962;2023-09-18T05:57:36;5.72;;;5.00;;
13335;SDS011;6737;51.480;11.962;2023-09-18T06:00:03;5.32;;;4.70;;
13335;SDS011;6737;51.480;11.962;2023-09-18T06:02:30;5.28;;;4.78;;
13335;SDS011;6737;51.480;11.962;2023-09-18T06:04:56;6.18;;;5.07;;
13335;SDS011;6737;51.480;11.962;2023-09-18T06:07:25;5.32;;;4.82;;
13335;SDS011;6737;51.480;11.962;2023-09-18T06:09:55;7.03;;;4.75;;
13335;SDS011;6737;51.480;11.962;2023-09-18T06:12:22;7.93;;;5.00;;
13335;SDS011;6737;51.480;11.962;2023-09-18T06:14:48;10.45;;;4.70;;
13335;SDS011;6737;51.480;11.962;2023-09-18T06:17:14;7.32;;;5.22;;
13335;SDS011;6737;51.480;11.962;2023-09-18T06:19:41;6.47;;;4.70;;
13335;SDS011;6737;51.480;11.962;2023-09-18T06:22:08;6.03;;;4.45;;
13335;SDS011;6737;51.480;11.962;2023-09-18T06:24:34;7.25;;;4.32;;
13335;SDS011;6737;51.480;11.962;2023-09-18T06:27:00;9.07;;;4.55;;
13335;SDS011;6737;51.480;11.962;2023-09-18T06:29:29;6.05;;;4.65;;
13335;SDS011;6737;51.480;11.962;2023-09-18T06:31:56;7.60;;;4.22;;
13335;SDS011;6737;51.480;11.962;2023-09-18T06:34:22;6.57;;;4.53;;
13335;SDS011;6737;51.480;11.962;2023-09-18T06:36:48;4.72;;;4.20;;
13335;SDS011;6737;51.480;11.962;2023-09-18T06:39:14;9.70;;;4.25;;
13335;SDS011;6737;51.480;11.962;2023-09-18T06:41:40;5.70;;;4.35;;
13335;SDS011;6737;51.480;11.962;2023-09-18T06:44:06;6.90;;;4.30;;
13335;SDS011;6737;51.480;11.962;2023-09-18T06:46:32;4.70;;;4.18;;
13335;SDS011;6737;51.480;11.962;2023-09-18T06:48:58;8.07;;;4.57;;
13335;SDS011;6737;51.480;11.962;2023-09-18T06:51:26;4.63;;;4.03;;
13335;SDS011;6737;51.480;11.962;2023-09-18T06:53:53;8.13;;;4.05;;
13335;SDS011;6737;51.480;11.962;2023-09-18T06:56:20;6.68;;;4.50;;
13335;SDS011;6737;51.480;11.962;2023-09-18T06:58:45;6.15;;;4.43;;
13335;SDS011;6737;51.480;11.962;2023-09-18T07:01:13;6.65;;;3.95;;
13335;SDS011;6737;51.480;11.962;2023-09-18T07:03:40;8.70;;;4.18;;
13335;SDS011;6737;51.480;11.962;2023-09-18T07:06:06;5.32;;;3.92;;
13335;SDS011;6737;51.480;11.962;2023-09-18T07:08:32;8.52;;;4.25;;
13335;SDS011;6737;51.480;11.962;2023-09-18T07:10:58;9.02;;;4.50;;
13335;SDS011;6737;51.480;11.962;2023-09-18T07:13:24;6.47;;;3.92;;
13335;SDS011;6737;51.480;11.962;2023-09-18T07:15:50;7.80;;;3.70;;
13335;SDS011;6737;51.480;11.962;2023-09-18T07:18:16;6.68;;;3.97;;
13335;SDS011;6737;51.480;11.962;2023-09-18T07:20:45;7.68;;;4.20;;
13335;SDS011;6737;51.480;11.962;2023-09-18T07:23:11;7.53;;;4.00;;
13335;SDS011;6737;51.480;11.962;2023-09-18T07:25:37;9.30;;;3.92;;
13335;SDS011;6737;51.480;11.962;2023-09-18T07:28:05;8.73;;;3.70;;
13335;SDS011;6737;51.480;11.962;2023-09-18T07:30:31;9.52;;;4.28;;
13335;SDS011;6737;51.480;11.962;2023-09-18T07:32:58;6.05;;;3.80;;
13335;SDS011;6737;51.480;11.962;2023-09-18T07:35:25;5.55;;;3.47;;
13335;SDS011;6737;51.480;11.962;2023-09-18T07:37:52;5.78;;;3.72;;
13335;SDS011;6737;51.480;11.962;2023-09-18T07:40:18;5.93;;;3.60;;
13335;SDS011;6737;51.480;11.962;2023-09-18T07:42:44;4.55;;;3.50;;
13335;SDS011;6737;51.480;11.962;2023-09-18T07:45:10;6.00;;;3.30;;
13335;SDS011;6737;51.480;11.962;2023-09-18T07:47:37;5.28;;;3.67;;
13335;SDS011;6737;51.480;11.962;2023-09-18T07:50:03;7.50;;;3.78;;
13335;SDS011;6737;51.480;11.962;2023-09-18T07:52:29;4.70;;;3.58;;
13335;SDS011;6737;51.480;11.962;2023-09-18T07:54:57;7.35;;;3.88;;
13335;SDS011;6737;51.480;11.962;2023-09-18T07:57:23;6.30;;;3.50;;
13335;SDS011;6737;51.480;11.962;2023-09-18T07:59:51;7.95;;;3.40;;
13335;SDS011;6737;51.480;11.962;2023-09-18T08:02:17;5.88;;;3.60;;
13335;SDS011;6737;51.480;11.962;2023-09-18T08:04:43;6.18;;;3.55;;
13335;SDS011;6737;51.480;11.962;2023-09-18T08:07:09;5.15;;;3.40;;
13335;SDS011;6737;51.480;11.962;2023-09-18T08:09:35;7.43;;;3.78;;
13335;SDS011;6737;51.480;11.962;2023-09-18T08:12:05;3.70;;;3.30;;
13335;SDS011;6737;51.480;11.962;2023-09-18T08:14:32;4.47;;;3.40;;
13335;SDS011;6737;51.480;11.962;2023-09-18T08:17:00;6.40;;;3.30;;
13335;SDS011;6737;51.480;11.962;2023-09-18T08:19:30;8.55;;;3.35;;
13335;SDS011;6737;51.480;11.962;2023-09-18T08:21:59;3.75;;;3.25;;
13335;SDS011;6737;51.480;11.962;2023-09-18T08:24:25;5.85;;;3.15;;
13335;SDS011;6737;51.480;11.962;2023-09-18T08:26:51;6.35;;;3.47;;
13335;SDS011;6737;51.480;11.962;2023-09-18T08:29:17;5.30;;;3.17;;
13335;SDS011;6737;51.480;11.962;2023-09-18T08:31:43;6.95;;;3.22;;
13335;SDS011;6737;51.480;11.962;2023-09-18T08:34:09;5.70;;;3.35;;
13335;SDS011;6737;51.480;11.962;2023-09-18T08:36:35;8.43;;;3.65;;
13335;SDS011;6737;51.480;11.962;2023-09-18T08:39:01;5.95;;;3.13;;
13335;SDS011;6737;51.480;11.962;2023-09-18T08:41:31;5.90;;;3.10;;
13335;SDS011;6737;51.480;11.962;2023-09-18T08:44:02;6.45;;;3.42;;
13335;SDS011;6737;51.480;11.962;2023-09-18T08:46:29;9.60;;;3.70;;
13335;SDS011;6737;51.480;11.962;2023-09-18T08:48:56;4.05;;;3.30;;
13335;SDS011;6737;51.480;11.962;2023-09-18T08:51:24;4.40;;;3.00;;
13335;SDS011;6737;51.480;11.962;2023-09-18T08:53:50;3.78;;;3.08;;
13335;SDS011;6737;51.480;11.962;2023-09-18T08:56:18;4.57;;;3.13;;
13335;SDS011;6737;51.480;11.962;2023-09-18T08:58:46;4.07;;;2.95;;
13335;SDS011;6737;51.480;11.962;2023-09-18T09:01:12;5.82;;;3.38;;
13335;SDS011;6737;51.480;11.962;2023-09-18T09:03:42;4.43;;;3.08;;
13335;SDS011;6737;51.480;11.962;2023-09-18T09:06:11;5.70;;;3.33;;
13335;SDS011;6737;51.480;11.962;2023-09-18T09:08:38;6.35;;;3.42;;
13335;SDS011;6737;51.480;11.962;2023-09-18T09:11:04;3.92;;;3.15;;
13335;SDS011;6737;51.480;11.962;2023-09-18T09:13:30;7.68;;;3.40;;
13335;SDS011;6737;51.480;11.962;2023-09-18T09:15:57;7.25;;;3.33;;
13335;SDS011;6737;51.480;11.962;2023-09-18T09:18:25;6.13;;;3.30;;
13335;SDS011;6737;51.480;11.962;2023-09-18T09:20:53;6.20;;;3.08;;
13335;SDS011;6737;51.480;11.962;2023-09-18T09:26:14;4.03;;;3.25;;
13335;SDS011;6737;51.480;11.962;2023-09-18T09:28:42;4.47;;;3.00;;
13335;SDS011;6737;51.480;11.962;2023-09-18T09:31:09;4.85;;;3.22;;
13335;SDS011;6737;51.480;11.962;2023-09-18T09:33:36;5.00;;;2.97;;
13335;SDS011;6737;51.480;11.962;2023-09-18T09:36:06;5.90;;;3.17;;
13335;SDS011;6737;51.480;11.962;2023-09-18T09:38:33;6.68;;;3.20;;
13335;SDS011;6737;51.480;11.962;2023-09-18T09:41:00;6.10;;;3.33;;
13335;SDS011;6737;51.480;11.962;2023-09-18T09:43:27;5.53;;;3.10;;
13335;SDS011;6737;51.480;11.962;2023-09-18T09:45:56;5.30;;;3.15;;
13335;SDS011;6737;51.480;11.962;2023-09-18T09:48:24;7.68;;;3.35;;
13335;SDS011;6737;51.480;11.962;2023-09-18T09:50:59;6.70;;;3.60;;
13335;SDS011;6737;51.480;11.962;2023-09-18T09:53:45;5.35;;;3.28;;
13335;SDS011;6737;51.480;11.962;2023-09-18T09:56:13;3.97;;;3.25;;
13335;SDS011;6737;51.480;11.962;2023-09-18T09:58:44;5.43;;;3.60;;
13335;SDS011;6737;51.480;11.962;2023-09-18T10:01:24;3.53;;;3.10;;
13335;SDS011;6737;51.480;11.962;2023-09-18T10:03:53;6.43;;;3.75;;
13335;SDS011;6737;51.480;11.962;2023-09-18T10:06:21;8.25;;;3.58;;
13335;SDS011;6737;51.480;11.962;2023-09-18T10:08:48;4.43;;;3.55;;
13335;SDS011;6737;51.480;11.962;2023-09-18T10:11:13;6.80;;;3.53;;
13335;SDS011;6737;51.480;11.962;2023-09-18T10:16:25;6.60;;;3.42;;
13335;SDS011;6737;51.480;11.962;2023-09-18T10:18:58;5.70;;;3.50;;
13335;SDS011;6737;51.480;11.962;2023-09-18T10:24:28;5.80;;;3.38;;
13335;SDS011;6737;51.480;11.962;2023-09-18T10:26:56;6.15;;;3.30;;
13335;SDS011;6737;51.480;11.962;2023-09-18T10:29:24;4.88;;;3.40;;
13335;SDS011;6737;51.480;11.962;2023-09-18T10:31:51;6.63;;;3.45;;
13335;SDS011;6737;51.480;11.962;2023-09-18T10:34:19;8.00;;;3.50;;
13335;SDS011;6737;51.480;11.962;2023-09-18T10:36:49;9.55;;;3.55;;
13335;SDS011;6737;51.480;11.962;2023-09-18T10:39:16;5.30;;;3.58;;
13335;SDS011;6737;51.480;11.962;2023-09-18T10:41:49;6.57;;;3.33;;
13335;SDS011;6737;51.480;11.962;2023-09-18T10:44:17;6.63;;;3.70;;
13335;SDS011;6737;51.480;11.962;2023-09-18T10:46:44;7.95;;;3.38;;
13335;SDS011;6737;51.480;11.962;2023-09-18T10:49:11;4.00;;;3.10;;
13335;SDS011;6737;51.480;11.962;2023-09-18T10:51:38;7.68;;;3.42;;
13335;SDS011;6737;51.480;11.962;2023-09-18T10:54:11;7.57;;;4.00;;
13335;SDS011;6737;51.480;11.962;2023-09-18T10:56:43;5.85;;;3.40;;
13335;SDS011;6737;51.480;11.962;2023-09-18T10:59:09;6.47;;;3.67;;
13335;SDS011;6737;51.480;11.962;2023-09-18T11:01:35;5.25;;;3.35;;
13335;SDS011;6737;51.480;11.962;2023-09-18T11:04:03;4.85;;;4.05;;
13335;SDS011;6737;51.480;11.962;2023-09-18T11:09:46;6.32;;;3.72;;
13335;SDS011;6737;51.480;11.962;2023-09-18T11:12:16;7.95;;;3.67;;
13335;SDS011;6737;51.480;11.962;2023-09-18T11:20:02;7.70;;;3.42;;
13335;SDS011;6737;51.480;11.962;2023-09-18T11:22:47;5.68;;;3.33;;
13335;SDS011;6737;51.480;11.962;2023-09-18T11:28:23;9.63;;;3.60;;
13335;SDS011;6737;51.480;11.962;2023-09-18T11:30:51;8.63;;;3.67;;
13335;SDS011;6737;51.480;11.962;2023-09-18T11:33:33;8.10;;;4.05;;
13335;SDS011;6737;51.480;11.962;2023-09-18T11:36:03;7.97;;;4.22;;
13335;SDS011;6737;51.480;11.962;2023-09-18T11:38:59;6.43;;;3.72;;
13335;SDS011;6737;51.480;11.962;2023-09-18T11:41:30;7.05;;;3.90;;
13335;SDS011;6737;51.480;11.962;2023-09-18T11:46:38;8.30;;;3.92;;
13335;SDS011;6737;51.480;11.962;2023-09-18T11:49:10;7.93;;;3.88;;
13335;SDS011;6737;51.480;11.962;2023-09-18T11:51:40;10.73;;;4.03;;
13335;SDS011;6737;51.480;11.962;2023-09-18T11:54:07;9.38;;;3.80;;
13335;SDS011;6737;51.480;11.962;2023-09-18T11:56:33;6.60;;;4.07;;
13335;SDS011;6737;51.480;11.962;2023-09-18T11:59:00;7.72;;;3.45;;
13335;SDS011;6737;51.480;11.962;2023-09-18T12:01:30;7.22;;;3.90;;
13335;SDS011;6737;51.480;11.962;2023-09-18T12:04:01;9.88;;;3.85;;
13335;SDS011;6737;51.480;11.962;2023-09-18T12:06:27;7.85;;;3.75;;
13335;SDS011;6737;51.480;11.962;2023-09-18T12:08:53;10.45;;;3.80;;
13335;SDS011;6737;51.480;11.962;2023-09-18T12:11:20;8.43;;;3.40;;
13335;SDS011;6737;51.480;11.962;2023-09-18T12:13:47;7.60;;;3.75;;
13335;SDS011;6737;51.480;11.962;2023-09-18T12:16:16;8.20;;;3.38;;
13335;SDS011;6737;51.480;11.962;2023-09-18T12:18:45;9.38;;;3.42;;
13335;SDS011;6737;51.480;11.962;2023-09-18T12:21:14;9.18;;;3.28;;
13335;SDS011;6737;51.480;11.962;2023-09-18T12:23:42;8.48;;;3.15;;
13335;SDS011;6737;51.480;11.962;2023-09-18T12:26:13;7.00;;;3.22;;
13335;SDS011;6737;51.480;11.962;2023-09-18T12:28:40;6.82;;;3.17;;
13335;SDS011;6737;51.480;11.962;2023-09-18T12:31:11;5.95;;;3.13;;
13335;SDS011;6737;51.480;11.962;2023-09-18T12:33:42;8.15;;;3.38;;
13335;SDS011;6737;51.480;11.962;2023-09-18T12:36:09;7.40;;;2.83;;
13335;SDS011;6737;51.480;11.962;2023-09-18T12:38:36;6.78;;;3.03;;
13335;SDS011;6737;51.480;11.962;2023-09-18T12:41:03;7.20;;;2.92;;
13335;SDS011;6737;51.480;11.962;2023-09-18T12:43:43;9.45;;;3.30;;
13335;SDS011;6737;51.480;11.962;2023-09-18T12:46:10;5.95;;;3.00;;
13335;SDS011;6737;51.480;11.962;2023-09-18T12:48:38;6.88;;;3.20;;
13335;SDS011;6737;51.480;11.962;2023-09-18T12:51:10;7.57;;;3.08;;
13335;SDS011;6737;51.480;11.962;2023-09-18T12:53:36;6.32;;;3.10;;
13335;SDS011;6737;51.480;11.962;2023-09-18T12:56:10;7.10;;;3.10;;
13335;SDS011;6737;51.480;11.962;2023-09-18T12:58:39;6.53;;;3.30;;
13335;SDS011;6737;51.480;11.962;2023-09-18T13:01:06;4.15;;;3.00;;
13335;SDS011;6737;51.480;11.962;2023-09-18T13:03:34;9.95;;;3.25;;
13335;SDS011;6737;51.480;11.962;2023-09-18T13:06:08;7.00;;;3.25;;
13335;SDS011;6737;51.480;11.962;2023-09-18T13:08:35;10.18;;;3.53;;
13335;SDS011;6737;51.480;11.962;2023-09-18T13:11:01;8.80;;;3.42;;
13335;SDS011;6737;51.480;11.962;2023-09-18T13:13:32;10.07;;;3.35;;
13335;SDS011;6737;51.480;11.962;2023-09-18T13:15:58;5.60;;;3.30;;
13335;SDS011;6737;51.480;11.962;2023-09-18T13:18:26;8.80;;;3.63;;
13335;SDS011;6737;51.480;11.962;2023-09-18T13:20:52;8.30;;;3.50;;
13335;SDS011;6737;51.480;11.962;2023-09-18T13:23:19;7.68;;;3.20;;
13335;SDS011;6737;51.480;11.962;2023-09-18T13:25:45;10.95;;;3.65;;
13335;SDS011;6737;51.480;11.962;2023-09-18T13:28:12;11.50;;;3.90;;
13335;SDS011;6737;51.480;11.962;2023-09-18T13:30:40;7.10;;;3.22;;
13335;SDS011;6737;51.480;11.962;2023-09-18T13:33:07;5.00;;;2.95;;
13335;SDS011;6737;51.480;11.962;2023-09-18T13:35:38;8.35;;;3.15;;
13335;SDS011;6737;51.480;11.962;2023-09-18T13:38:05;6.63;;;3.10;;
13335;SDS011;6737;51.480;11.962;2023-09-18T13:40:34;8.52;;;3.00;;
13335;SDS011;6737;51.480;11.962;2023-09-18T13:43:05;9.00;;;2.50;;
13335;SDS011;6737;51.480;11.962;2023-09-18T13:45:33;5.53;;;2.15;;
13335;SDS011;6737;51.480;11.962;2023-09-18T13:48:05;5.43;;;2.00;;
13335;SDS011;6737;51.480;11.962;2023-09-18T13:50:32;6.10;;;1.88;;
13335;SDS011;6737;51.480;11.962;2023-09-18T13:52:59;4.43;;;1.83;;
13335;SDS011;6737;51.480;11.962;2023-09-18T13:55:26;5.88;;;2.13;;
13335;SDS011;6737;51.480;11.962;2023-09-18T13:57:52;3.80;;;1.80;;
13335;SDS011;6737;51.480;11.962;2023-09-18T14:00:18;4.05;;;2.20;;
13335;SDS011;6737;51.480;11.962;2023-09-18T14:02:45;7.25;;;2.38;;
13335;SDS011;6737;51.480;11.962;2023-09-18T14:05:12;5.18;;;1.80;;
13335;SDS011;6737;51.480;11.962;2023-09-18T14:07:38;7.25;;;2.60;;
13335;SDS011;6737;51.480;11.962;2023-09-18T14:10:06;9.40;;;2.42;;
13335;SDS011;6737;51.480;11.962;2023-09-18T14:12:35;6.15;;;2.13;;
13335;SDS011;6737;51.480;11.962;2023-09-18T14:15:05;6.18;;;1.77;;
13335;SDS011;6737;51.480;11.962;2023-09-18T14:17:32;3.72;;;1.80;;
13335;SDS011;6737;51.480;11.962;2023-09-18T14:19:59;5.20;;;1.95;;
13335;SDS011;6737;51.480;11.962;2023-09-18T14:22:25;5.32;;;2.00;;
13335;SDS011;6737;51.480;11.962;2023-09-18T14:24:51;4.38;;;2.22;;
13335;SDS011;6737;51.480;11.962;2023-09-18T14:27:17;7.25;;;2.28;;
13335;SDS011;6737;51.480;11.962;2023-09-18T14:29:43;6.60;;;2.42;;
13335;SDS011;6737;51.480;11.962;2023-09-18T14:32:09;4.68;;;2.40;;
13335;SDS011;6737;51.480;11.962;2023-09-18T14:34:36;6.25;;;2.60;;
13335;SDS011;6737;51.480;11.962;2023-09-18T14:37:03;6.90;;;2.67;;
13335;SDS011;6737;51.480;11.962;2023-09-18T14:39:30;4.30;;;2.38;;
13335;SDS011;6737;51.480;11.962;2023-09-18T14:41:56;5.25;;;2.60;;
13335;SDS011;6737;51.480;11.962;2023-09-18T14:44:22;4.43;;;2.70;;
13335;SDS011;6737;51.480;11.962;2023-09-18T14:46:48;3.85;;;2.72;;
13335;SDS011;6737;51.480;11.962;2023-09-18T14:49:14;5.65;;;3.15;;
13335;SDS011;6737;51.480;11.962;2023-09-18T14:51:40;4.95;;;2.85;;
13335;SDS011;6737;51.480;11.962;2023-09-18T14:54:06;6.25;;;2.67;;
13335;SDS011;6737;51.480;11.962;2023-09-18T14:56:33;5.28;;;2.83;;
13335;SDS011;6737;51.480;11.962;2023-09-18T14:59:01;5.25;;;2.83;;
13335;SDS011;6737;51.480;11.962;2023-09-18T15:01:27;6.07;;;3.22;;
13335;SDS011;6737;51.480;11.962;2023-09-18T15:03:53;5.18;;;3.30;;
13335;SDS011;6737;51.480;11.962;2023-09-18T15:06:20;6.40;;;3.28;;
13335;SDS011;6737;51.480;11.962;2023-09-18T15:08:46;5.30;;;3.28;;
13335;SDS011;6737;51.480;11.962;2023-09-18T15:11:13;5.22;;;2.85;;
13335;SDS011;6737;51.480;11.962;2023-09-18T15:13:42;5.18;;;2.90;;
13335;SDS011;6737;51.480;11.962;2023-09-18T15:16:09;4.68;;;2.90;;